Time;durP1;ratioP1;P1;durP2;ratioP2;P2;SDS_P1;SDS_P2;PMS_P1;PMS_P2;Temp;Humidity;BMP_temperature;BMP_pressure;BME280_temperature;BME280_humidity;BME280_pressure;Samples;Min_cycle;Max_cycle;Signal;HPM_P1;HPM_P2
2023/02/04 00:01:06;;;;;;;1.10;1.10;;;;;;;;;;5026445;28;20124;-34
2023/02/04 00:03:32;;;;;;;2.90;1.67;;;;;;;;;;5027931;28;20490;-31
2023/02/04 00:05:58;;;;;;;1.80;1.70;;;;;;;;;;5024793;28;20029;-34
2023/02/04 00:08:24;;;;;;;1.10;1.10;;;;;;;;;;5023618;28;20454;-33
2023/02/04 00:10:50;;;;;;;1.33;1.23;;;;;;;;;;5026600;28;20104;-35
2023/02/04 00:13:16;;;;;;;1.40;1.40;;;;;;;;;;5027550;28;20104;-30
2023/02/04 00:15:42;;;;;;;1.40;1.33;;;;;;;;;;5027836;28;20191;-34
2023/02/04 00:18:08;;;;;;;1.77;1.63;;;;;;;;;;5027797;28;20025;-33
2023/02/04 00:20:34;;;;;;;1.30;1.30;;;;;;;;;;5023467;28;20108;-35
2023/02/04 00:23:00;;;;;;;0.93;0.93;;;;;;;;;;5026432;28;20028;-34
2023/02/04 00:25:26;;;;;;;1.52;1.48;;;;;;;;;;5027516;28;20041;-35
2023/02/04 00:27:52;;;;;;;1.30;1.25;;;;;;;;;;5025237;28;20021;-35
2023/02/04 00:30:18;;;;;;;1.10;1.10;;;;;;;;;;5015881;28;20037;-32
2023/02/04 00:32:44;;;;;;;1.10;1.10;;;;;;;;;;5018566;28;20034;-34
2023/02/04 00:35:10;;;;;;;1.88;1.77;;;;;;;;;;5017766;28;20413;-35
2023/02/04 00:37:36;;;;;;;1.35;1.25;;;;;;;;;;5028246;28;20029;-32
2023/02/04 00:40:02;;;;;;;1.45;1.35;;;;;;;;;;5021801;28;20037;-32
2023/02/04 00:42:28;;;;;;;1.50;1.40;;;;;;;;;;5029359;28;20034;-34
2023/02/04 00:44:54;;;;;;;1.35;1.30;;;;;;;;;;5021707;28;20402;-35
2023/02/04 00:47:20;;;;;;;1.35;1.33;;;;;;;;;;5025720;28;20048;-34
2023/02/04 00:49:46;;;;;;;1.30;1.30;;;;;;;;;;5027128;28;20488;-34
2023/02/04 00:52:12;;;;;;;1.67;1.58;;;;;;;;;;5024646;28;20029;-33
2023/02/04 00:54:38;;;;;;;1.83;1.73;;;;;;;;;;5022300;28;20034;-35
2023/02/04 00:57:04;;;;;;;1.52;1.42;;;;;;;;;;5023781;28;20049;-34
2023/02/04 00:59:30;;;;;;;1.48;1.42;;;;;;;;;;5024024;28;20037;-35
2023/02/04 01:01:56;;;;;;;2.22;1.98;;;;;;;;;;5012123;28;20032;-35
2023/02/04 01:04:22;;;;;;;1.20;1.10;;;;;;;;;;5027127;28;20026;-34
2023/02/04 01:06:48;;;;;;;1.75;1.48;;;;;;;;;;5017567;28;20030;-34
2023/02/04 01:09:14;;;;;;;1.30;1.20;;;;;;;;;;5017234;28;20037;-35
2023/02/04 01:11:40;;;;;;;2.10;1.85;;;;;;;;;;5026886;28;20029;-35
2023/02/04 01:14:06;;;;;;;2.00;1.90;;;;;;;;;;5026192;28;20030;-35
2023/02/04 01:16:32;;;;;;;1.90;1.80;;;;;;;;;;5025124;28;20022;-35
2023/02/04 01:18:59;;;;;;;2.42;1.90;;;;;;;;;;5021009;28;20482;-35
2023/02/04 01:21:25;;;;;;;2.10;1.90;;;;;;;;;;5024804;28;20572;-35
2023/02/04 01:23:51;;;;;;;1.00;0.80;;;;;;;;;;5026127;28;20037;-34
2023/02/04 01:26:18;;;;;;;1.63;1.52;;;;;;;;;;5032455;28;20040;-33
2023/02/04 01:28:44;;;;;;;1.80;1.67;;;;;;;;;;5025635;28;20038;-35
2023/02/04 01:31:10;;;;;;;1.98;1.80;;;;;;;;;;5027774;28;20034;-35
2023/02/04 01:33:36;;;;;;;1.50;1.40;;;;;;;;;;5030742;28;20083;-35
2023/02/04 01:36:01;;;;;;;3.30;2.00;;;;;;;;;;5026451;28;20482;-35
2023/02/04 01:38:27;;;;;;;1.48;1.38;;;;;;;;;;5028679;28;20042;-35
2023/02/04 01:40:53;;;;;;;1.90;1.80;;;;;;;;;;5029001;28;20025;-31
2023/02/04 01:43:21;;;;;;;1.95;1.80;;;;;;;;;;5030324;28;20397;-35
2023/02/04 01:45:47;;;;;;;2.35;2.15;;;;;;;;;;5030898;28;20494;-35
2023/02/04 01:48:19;;;;;;;2.47;2.28;;;;;;;;;;5029739;28;20120;-32
2023/02/04 01:50:45;;;;;;;1.92;1.65;;;;;;;;;;5033054;28;20068;-34
2023/02/04 01:53:11;;;;;;;2.78;1.88;;;;;;;;;;5029532;28;20073;-35
2023/02/04 01:55:37;;;;;;;4.78;2.28;;;;;;;;;;5030751;28;20627;-34
2023/02/04 01:58:03;;;;;;;2.55;2.30;;;;;;;;;;5030675;28;20164;-35
2023/02/04 02:00:31;;;;;;;2.10;1.90;;;;;;;;;;5029423;28;20033;-39
2023/02/04 02:02:57;;;;;;;2.53;2.30;;;;;;;;;;5028979;28;20021;-39
2023/02/04 02:05:28;;;;;;;3.28;1.92;;;;;;;;;;5027594;28;20040;-39
2023/02/04 02:07:56;;;;;;;1.13;1.13;;;;;;;;;;5030187;28;20124;-37
2023/02/04 02:10:23;;;;;;;2.30;2.10;;;;;;;;;;5024861;28;20030;-38
2023/02/04 02:12:49;;;;;;;2.38;2.17;;;;;;;;;;5029481;28;20025;-39
2023/02/04 02:15:16;;;;;;;3.17;2.50;;;;;;;;;;5025101;28;20021;-40
2023/02/04 02:17:42;;;;;;;3.08;2.40;;;;;;;;;;5030501;28;20033;-39
2023/02/04 02:20:09;;;;;;;1.83;1.65;;;;;;;;;;5025670;28;20049;-39
2023/02/04 02:22:41;;;;;;;3.35;2.10;;;;;;;;;;5030245;28;20040;-40
2023/02/04 02:25:11;;;;;;;2.15;2.03;;;;;;;;;;5024633;28;20099;-40
2023/02/04 02:27:37;;;;;;;2.88;2.20;;;;;;;;;;5029021;28;20033;-40
2023/02/04 02:30:04;;;;;;;2.40;2.15;;;;;;;;;;5030518;28;20028;-38
2023/02/04 02:32:30;;;;;;;3.10;2.17;;;;;;;;;;5024660;28;20029;-39
2023/02/04 02:34:56;;;;;;;4.28;2.17;;;;;;;;;;5029896;28;20032;-39
2023/02/04 02:37:22;;;;;;;1.98;1.85;;;;;;;;;;5026593;28;20029;-38
2023/02/04 02:39:48;;;;;;;4.95;2.00;;;;;;;;;;5028015;28;20089;-40
2023/02/04 02:42:15;;;;;;;1.27;1.17;;;;;;;;;;5028124;28;20497;-39
2023/02/04 02:44:42;;;;;;;4.22;1.83;;;;;;;;;;5029786;28;20025;-40
2023/02/04 02:47:12;;;;;;;2.25;2.05;;;;;;;;;;5028383;28;20049;-40
2023/02/04 02:49:39;;;;;;;4.45;2.35;;;;;;;;;;5029444;28;20041;-39
2023/02/04 02:52:05;;;;;;;3.35;2.45;;;;;;;;;;5028323;28;20386;-39
2023/02/04 02:54:32;;;;;;;2.40;1.90;;;;;;;;;;5027089;28;20030;-39
2023/02/04 02:56:59;;;;;;;4.25;1.85;;;;;;;;;;5021024;28;20057;-39
2023/02/04 02:59:26;;;;;;;2.90;1.80;;;;;;;;;;5028333;28;20035;-40
2023/02/04 03:01:54;;;;;;;1.70;1.52;;;;;;;;;;5024206;28;20040;-39
2023/02/04 03:04:21;;;;;;;4.90;1.70;;;;;;;;;;5015770;28;20596;-38
2023/02/04 03:06:47;;;;;;;5.57;2.25;;;;;;;;;;5013613;28;20033;-37
2023/02/04 03:09:13;;;;;;;2.75;1.80;;;;;;;;;;5010899;28;20048;-35
2023/02/04 03:11:40;;;;;;;1.20;1.20;;;;;;;;;;5006075;28;20018;-38
2023/02/04 03:14:06;;;;;;;3.90;1.70;;;;;;;;;;5015460;28;20056;-39
2023/02/04 03:16:33;;;;;;;2.25;2.05;;;;;;;;;;5024886;28;20656;-39
2023/02/04 03:18:59;;;;;;;4.82;2.38;;;;;;;;;;5022394;28;20053;-39
2023/02/04 03:21:26;;;;;;;2.70;1.35;;;;;;;;;;5026473;28;20429;-40
2023/02/04 03:23:55;;;;;;;2.33;1.88;;;;;;;;;;5027841;28;20026;-39
2023/02/04 03:26:21;;;;;;;5.90;2.33;;;;;;;;;;5029258;28;20087;-38
2023/02/04 03:28:47;;;;;;;1.48;1.17;;;;;;;;;;5025660;28;20041;-38
2023/02/04 03:31:13;;;;;;;3.25;1.98;;;;;;;;;;5027136;28;20042;-40
2023/02/04 03:33:41;;;;;;;2.00;1.85;;;;;;;;;;5026963;28;20052;-39
2023/02/04 03:36:07;;;;;;;3.73;2.00;;;;;;;;;;5026858;28;20575;-39
2023/02/04 03:38:33;;;;;;;3.67;2.10;;;;;;;;;;5026422;28;20079;-37
2023/02/04 03:40:59;;;;;;;7.15;1.83;;;;;;;;;;5025533;28;20067;-40
2023/02/04 03:43:25;;;;;;;8.02;2.50;;;;;;;;;;5025712;28;20037;-40
2023/02/04 03:45:51;;;;;;;4.43;1.95;;;;;;;;;;5026497;28;20395;-38
2023/02/04 03:48:17;;;;;;;5.72;2.33;;;;;;;;;;5025746;28;20041;-39
2023/02/04 03:50:43;;;;;;;9.50;2.30;;;;;;;;;;5029725;28;20029;-38
2023/02/04 03:53:09;;;;;;;5.45;1.70;;;;;;;;;;5026631;28;20083;-36
2023/02/04 03:55:35;;;;;;;6.78;2.72;;;;;;;;;;5030248;28;20497;-39
2023/02/04 03:58:02;;;;;;;6.15;1.83;;;;;;;;;;5027724;28;20033;-39
2023/02/04 04:00:28;;;;;;;6.25;2.25;;;;;;;;;;5026843;28;20117;-39
2023/02/04 04:02:56;;;;;;;4.57;2.35;;;;;;;;;;5024720;28;20052;-40
2023/02/04 04:05:22;;;;;;;6.67;2.30;;;;;;;;;;5028706;28;20040;-39
2023/02/04 04:07:48;;;;;;;8.63;2.33;;;;;;;;;;5024426;28;20037;-39
2023/02/04 04:10:14;;;;;;;4.18;1.83;;;;;;;;;;5026866;28;20036;-39
2023/02/04 04:12:40;;;;;;;4.60;2.78;;;;;;;;;;5022503;28;20048;-40
2023/02/04 04:15:06;;;;;;;9.10;2.55;;;;;;;;;;5027931;28;20025;-36
2023/02/04 04:17:32;;;;;;;10.60;2.33;;;;;;;;;;5027228;28;20045;-38
2023/02/04 04:19:58;;;;;;;4.88;2.45;;;;;;;;;;5025384;28;20037;-35
2023/02/04 04:22:24;;;;;;;2.33;1.25;;;;;;;;;;5025387;28;20107;-39
2023/02/04 04:24:50;;;;;;;11.20;2.45;;;;;;;;;;5026266;28;20500;-38
2023/02/04 04:27:16;;;;;;;2.85;1.83;;;;;;;;;;5025846;28;20029;-40
2023/02/04 04:29:42;;;;;;;5.72;1.55;;;;;;;;;;5029025;28;20025;-38
2023/02/04 04:32:08;;;;;;;9.50;2.00;;;;;;;;;;5025044;28;20406;-38
2023/02/04 04:34:35;;;;;;;6.72;2.40;;;;;;;;;;5027522;28;20028;-40
2023/02/04 04:37:01;;;;;;;5.53;1.88;;;;;;;;;;5029584;28;20051;-39
2023/02/04 04:39:27;;;;;;;3.10;2.00;;;;;;;;;;5030146;28;20041;-40
2023/02/04 04:41:53;;;;;;;5.65;1.90;;;;;;;;;;5029294;28;20032;-35
2023/02/04 04:44:19;;;;;;;5.05;1.98;;;;;;;;;;5028477;28;20461;-39
2023/02/04 04:46:44;;;;;;;5.20;1.85;;;;;;;;;;5030245;28;20049;-40
2023/02/04 04:49:10;;;;;;;4.40;2.17;;;;;;;;;;5028940;28;20025;-39
2023/02/04 04:51:36;;;;;;;7.43;2.17;;;;;;;;;;5029400;28;20356;-39
2023/02/04 04:54:02;;;;;;;4.43;1.80;;;;;;;;;;5028360;28;20033;-37
2023/02/04 04:56:28;;;;;;;4.07;2.03;;;;;;;;;;5029904;28;20029;-40
2023/02/04 04:58:54;;;;;;;11.18;1.88;;;;;;;;;;5028875;28;20032;-39
2023/02/04 05:01:21;;;;;;;4.35;2.53;;;;;;;;;;5029378;28;20086;-39
2023/02/04 05:03:47;;;;;;;4.00;1.67;;;;;;;;;;5027736;28;20120;-39
2023/02/04 05:06:13;;;;;;;5.43;2.33;;;;;;;;;;5029124;28;20115;-38
2023/02/04 05:08:39;;;;;;;6.32;2.60;;;;;;;;;;5028910;28;20577;-39
2023/02/04 05:11:05;;;;;;;4.07;2.25;;;;;;;;;;5029745;28;20029;-39
2023/02/04 05:13:31;;;;;;;5.55;2.15;;;;;;;;;;5026400;28;20029;-37
2023/02/04 05:15:57;;;;;;;8.10;2.22;;;;;;;;;;5028659;28;20413;-40
2023/02/04 05:18:23;;;;;;;4.82;1.73;;;;;;;;;;5028488;28;20091;-39
2023/02/04 05:20:49;;;;;;;4.38;1.90;;;;;;;;;;5029190;28;20065;-39
2023/02/04 05:23:16;;;;;;;8.95;2.30;;;;;;;;;;5026889;28;20029;-38
2023/02/04 05:25:42;;;;;;;3.78;1.77;;;;;;;;;;5029914;28;20115;-40
2023/02/04 05:28:08;;;;;;;7.18;2.42;;;;;;;;;;5027242;28;20037;-38
2023/02/04 05:30:34;;;;;;;2.75;1.70;;;;;;;;;;5029057;28;20056;-39
2023/02/04 05:32:59;;;;;;;7.90;1.95;;;;;;;;;;5028827;28;20037;-38
2023/02/04 05:35:25;;;;;;;2.15;1.92;;;;;;;;;;5027733;28;20493;-39
2023/02/04 05:37:51;;;;;;;4.55;1.63;;;;;;;;;;5029099;28;20092;-40
2023/02/04 05:40:17;;;;;;;9.48;2.85;;;;;;;;;;5029547;28;20029;-38
2023/02/04 05:42:43;;;;;;;3.63;2.30;;;;;;;;;;5029043;28;20021;-37
2023/02/04 05:45:13;;;;;;;7.95;1.58;;;;;;;;;;5026665;28;20442;-38
2023/02/04 05:47:39;;;;;;;6.93;3.38;;;;;;;;;;5029273;28;20077;-39
2023/02/04 05:50:05;;;;;;;1.40;1.30;;;;;;;;;;5028214;28;20060;-34
2023/02/04 05:52:31;;;;;;;1.70;1.50;;;;;;;;;;5027653;28;20048;-38
2023/02/04 05:54:57;;;;;;;4.93;2.25;;;;;;;;;;5027820;28;20033;-39
2023/02/04 05:57:23;;;;;;;6.05;1.80;;;;;;;;;;5025123;28;20121;-38
2023/02/04 05:59:49;;;;;;;7.22;2.50;;;;;;;;;;5027143;28;20025;-39
2023/02/04 06:02:15;;;;;;;2.42;1.90;;;;;;;;;;5026496;28;20036;-39
2023/02/04 06:04:41;;;;;;;2.17;1.70;;;;;;;;;;5020273;28;20455;-39
2023/02/04 06:07:07;;;;;;;2.47;2.08;;;;;;;;;;5025112;28;20025;-39
2023/02/04 06:09:33;;;;;;;4.35;2.10;;;;;;;;;;5025372;28;20086;-38
2023/02/04 06:11:59;;;;;;;3.15;2.47;;;;;;;;;;5027274;28;20022;-39
2023/02/04 06:14:25;;;;;;;5.57;2.92;;;;;;;;;;5029912;28;20040;-39
2023/02/04 06:16:51;;;;;;;11.80;3.08;;;;;;;;;;5031843;28;20026;-40
2023/02/04 06:19:17;;;;;;;7.03;2.60;;;;;;;;;;5032585;28;20045;-39
2023/02/04 06:21:43;;;;;;;6.60;2.47;;;;;;;;;;5031801;28;20033;-38
2023/02/04 06:24:09;;;;;;;3.80;2.47;;;;;;;;;;5032811;28;20059;-38
2023/02/04 06:26:35;;;;;;;7.18;2.60;;;;;;;;;;5031448;28;20108;-39
2023/02/04 06:29:01;;;;;;;7.28;2.22;;;;;;;;;;5030660;28;20044;-39
2023/02/04 06:31:27;;;;;;;3.45;2.45;;;;;;;;;;5031750;28;20255;-40
2023/02/04 06:33:53;;;;;;;2.25;1.67;;;;;;;;;;5031156;28;20611;-40
2023/02/04 06:36:19;;;;;;;5.63;1.55;;;;;;;;;;5029901;28;20380;-39
2023/02/04 06:38:45;;;;;;;1.10;1.10;;;;;;;;;;5032724;28;20493;-39
2023/02/04 06:41:11;;;;;;;1.10;1.10;;;;;;;;;;5032056;28;20049;-39
2023/02/04 06:43:37;;;;;;;3.22;1.90;;;;;;;;;;5031252;28;20040;-39
2023/02/04 06:46:03;;;;;;;5.43;1.73;;;;;;;;;;5030362;28;20048;-38
2023/02/04 06:48:29;;;;;;;1.27;1.25;;;;;;;;;;5031626;28;20033;-39
2023/02/04 06:50:55;;;;;;;12.13;1.90;;;;;;;;;;5032048;28;20036;-40
2023/02/04 06:53:20;;;;;;;5.40;2.30;;;;;;;;;;5031464;28;20049;-38
2023/02/04 06:55:46;;;;;;;6.57;3.08;;;;;;;;;;5031225;28;20508;-39
2023/02/04 06:58:12;;;;;;;5.90;2.70;;;;;;;;;;5030003;28;20049;-38
2023/02/04 07:00:38;;;;;;;2.83;1.95;;;;;;;;;;5032518;28;20029;-39
2023/02/04 07:03:06;;;;;;;4.32;1.65;;;;;;;;;;5025657;28;20474;-39
2023/02/04 07:05:32;;;;;;;6.07;2.78;;;;;;;;;;5028759;28;20494;-39
2023/02/04 07:07:58;;;;;;;1.75;1.75;;;;;;;;;;5029725;28;20029;-39
2023/02/04 07:10:24;;;;;;;7.20;3.35;;;;;;;;;;5028814;28;20021;-40
2023/02/04 07:12:50;;;;;;;5.78;2.38;;;;;;;;;;5030571;28;20029;-38
2023/02/04 07:15:16;;;;;;;2.53;2.33;;;;;;;;;;5031993;28;20021;-39
2023/02/04 07:17:42;;;;;;;5.63;2.90;;;;;;;;;;5030189;28;20026;-39
2023/02/04 07:20:09;;;;;;;3.05;2.67;;;;;;;;;;5028574;28;20553;-39
2023/02/04 07:22:35;;;;;;;6.28;2.95;;;;;;;;;;5027969;28;20029;-39
2023/02/04 07:25:01;;;;;;;4.38;2.95;;;;;;;;;;5029954;28;20037;-39
2023/02/04 07:27:27;;;;;;;7.32;3.08;;;;;;;;;;5028925;28;20037;-39
2023/02/04 07:29:53;;;;;;;5.60;2.90;;;;;;;;;;5029223;28;20382;-38
2023/02/04 07:32:19;;;;;;;4.15;2.85;;;;;;;;;;5029220;28;20041;-39
2023/02/04 07:34:45;;;;;;;3.90;1.73;;;;;;;;;;5031035;28;20114;-39
2023/02/04 07:37:14;;;;;;;2.03;1.45;;;;;;;;;;5030761;28;20383;-38
2023/02/04 07:39:40;;;;;;;1.63;1.35;;;;;;;;;;5028622;28;20112;-39
2023/02/04 07:42:06;;;;;;;5.10;1.80;;;;;;;;;;5031168;28;20116;-39
2023/02/04 07:44:32;;;;;;;3.53;2.85;;;;;;;;;;5026856;28;20026;-39
2023/02/04 07:46:58;;;;;;;3.78;2.90;;;;;;;;;;5029586;28;20555;-39
2023/02/04 07:49:24;;;;;;;1.85;1.65;;;;;;;;;;5035840;28;20045;-40
2023/02/04 07:51:50;;;;;;;3.95;2.10;;;;;;;;;;5045314;28;20120;-39
2023/02/04 07:54:15;;;;;;;6.65;2.22;;;;;;;;;;5030291;28;20028;-40
2023/02/04 07:56:41;;;;;;;1.52;1.48;;;;;;;;;;5030085;28;20109;-39
2023/02/04 07:59:07;;;;;;;6.22;2.50;;;;;;;;;;5025223;28;20514;-40
2023/02/04 08:01:33;;;;;;;2.97;2.42;;;;;;;;;;5028902;28;20041;-38
2023/02/04 08:03:59;;;;;;;4.35;2.45;;;;;;;;;;5027567;28;20025;-39
2023/02/04 08:06:25;;;;;;;11.32;2.83;;;;;;;;;;5026521;28;20079;-39
2023/02/04 08:08:51;;;;;;;7.57;2.80;;;;;;;;;;5030209;28;20109;-39
2023/02/04 08:11:17;;;;;;;3.00;1.35;;;;;;;;;;5030204;28;20028;-34
2023/02/04 08:13:43;;;;;;;7.65;2.72;;;;;;;;;;5030739;28;20526;-39
2023/02/04 08:16:09;;;;;;;5.10;2.65;;;;;;;;;;5028816;28;20067;-38
2023/02/04 08:18:35;;;;;;;8.05;3.15;;;;;;;;;;5030500;28;20030;-39
2023/02/04 08:21:03;;;;;;;1.42;1.33;;;;;;;;;;5027187;28;20533;-39
2023/02/04 08:23:29;;;;;;;8.57;1.90;;;;;;;;;;5030360;28;20048;-39
2023/02/04 08:25:55;;;;;;;20.55;2.20;;;;;;;;;;5029744;28;20029;-39
2023/02/04 08:28:21;;;;;;;5.50;2.42;;;;;;;;;;5030232;28;20095;-39
2023/02/04 08:30:47;;;;;;;4.38;2.05;;;;;;;;;;5027592;28;20467;-40
2023/02/04 08:33:13;;;;;;;5.28;2.38;;;;;;;;;;5023148;28;20033;-38
2023/02/04 08:35:39;;;;;;;5.68;1.67;;;;;;;;;;5027272;28;20478;-39
2023/02/04 08:38:05;;;;;;;4.00;2.53;;;;;;;;;;5030101;28;20033;-40
2023/02/04 08:40:31;;;;;;;4.00;2.00;;;;;;;;;;5027508;28;20394;-39
2023/02/04 08:42:57;;;;;;;3.78;1.10;;;;;;;;;;5029551;28;20032;-39
2023/02/04 08:45:23;;;;;;;5.70;3.00;;;;;;;;;;5028778;28;20146;-39
2023/02/04 08:47:49;;;;;;;8.93;2.30;;;;;;;;;;5017348;28;20053;-38
2023/02/04 08:50:15;;;;;;;4.45;2.00;;;;;;;;;;5029466;28;20100;-39
2023/02/04 08:52:41;;;;;;;3.10;1.90;;;;;;;;;;5029016;28;20056;-39
2023/02/04 08:55:07;;;;;;;4.45;1.90;;;;;;;;;;5029840;28;20022;-37
2023/02/04 08:57:33;;;;;;;3.17;1.48;;;;;;;;;;5029974;28;20044;-39
2023/02/04 08:59:59;;;;;;;5.55;2.97;;;;;;;;;;5029598;28;20026;-38
2023/02/04 09:02:25;;;;;;;7.07;2.03;;;;;;;;;;5029234;28;20364;-40
2023/02/04 09:04:51;;;;;;;2.33;1.83;;;;;;;;;;5042787;28;20029;-39
2023/02/04 09:07:17;;;;;;;5.97;2.40;;;;;;;;;;5029327;28;20394;-40
2023/02/04 09:09:43;;;;;;;5.88;2.58;;;;;;;;;;5029375;28;20025;-39
2023/02/04 09:12:09;;;;;;;5.15;2.10;;;;;;;;;;5030119;28;20040;-39
2023/02/04 09:14:35;;;;;;;5.28;2.40;;;;;;;;;;5028881;28;20033;-39
2023/02/04 09:17:01;;;;;;;4.25;1.60;;;;;;;;;;5029120;28;20111;-39
2023/02/04 09:19:27;;;;;;;6.72;2.35;;;;;;;;;;5030017;28;20037;-40
2023/02/04 09:21:53;;;;;;;8.98;2.78;;;;;;;;;;5044399;28;20376;-39
2023/02/04 09:24:22;;;;;;;2.17;1.98;;;;;;;;;;5029663;28;20083;-39
2023/02/04 09:26:48;;;;;;;;;;;;;;;;;;5030293;28;20459;-38
2023/02/04 09:29:14;;;;;;;5.28;1.67;;;;;;;;;;5044091;28;19956;-39
2023/02/04 09:31:40;;;;;;;5.25;1.73;;;;;;;;;;5026803;28;20045;-40
2023/02/04 09:34:06;;;;;;;1.90;1.77;;;;;;;;;;5029472;28;20022;-39
2023/02/04 09:36:36;;;;;;;7.45;2.58;;;;;;;;;;5028682;28;20037;-40
2023/02/04 09:39:03;;;;;;;8.88;2.00;;;;;;;;;;5026992;28;20064;-39
2023/02/04 09:41:29;;;;;;;11.02;2.10;;;;;;;;;;5029786;28;20033;-40
2023/02/04 09:43:55;;;;;;;4.03;1.45;;;;;;;;;;5028602;28;20112;-40
2023/02/04 09:46:23;;;;;;;5.90;1.75;;;;;;;;;;5029311;28;20136;-38
2023/02/04 09:48:49;;;;;;;5.07;1.67;;;;;;;;;;5032779;28;20120;-39
2023/02/04 09:51:20;;;;;;;7.57;2.15;;;;;;;;;;5032983;28;20382;-40
2023/02/04 09:53:46;;;;;;;4.10;2.22;;;;;;;;;;5032935;28;20075;-34
2023/02/04 09:56:13;;;;;;;7.53;2.20;;;;;;;;;;5033593;28;20037;-40
2023/02/04 09:58:40;;;;;;;4.93;2.17;;;;;;;;;;5032058;28;20037;-38
2023/02/04 10:01:16;;;;;;;6.57;1.90;;;;;;;;;;5030773;28;20041;-39
2023/02/04 10:03:47;;;;;;;9.15;2.25;;;;;;;;;;5030700;28;20479;-38
2023/02/04 10:06:14;;;;;;;5.78;2.90;;;;;;;;;;5026788;28;20079;-39
2023/02/04 10:08:40;;;;;;;6.45;2.17;;;;;;;;;;5030215;28;20589;-39
2023/02/04 10:11:08;;;;;;;5.72;2.28;;;;;;;;;;5032709;28;20064;-38
2023/02/04 10:13:36;;;;;;;3.95;1.65;;;;;;;;;;5031213;28;20045;-39
2023/02/04 10:16:03;;;;;;;7.80;2.70;;;;;;;;;;5031762;28;20072;-39
2023/02/04 10:18:30;;;;;;;4.72;2.55;;;;;;;;;;5031838;28;20021;-40
2023/02/04 10:21:06;;;;;;;8.82;2.17;;;;;;;;;;5033067;28;20013;-40
2023/02/04 10:23:32;;;;;;;8.00;2.20;;;;;;;;;;5030187;28;20030;-39
2023/02/04 10:25:58;;;;;;;5.30;2.13;;;;;;;;;;5031627;28;20538;-40
2023/02/04 10:28:32;;;;;;;9.65;2.70;;;;;;;;;;5031659;28;20029;-40
2023/02/04 10:30:58;;;;;;;5.57;1.88;;;;;;;;;;5031709;28;20120;-40
2023/02/04 10:33:24;;;;;;;10.13;2.53;;;;;;;;;;5030854;28;20192;-38
2023/02/04 10:35:52;;;;;;;7.15;2.20;;;;;;;;;;5031113;28;20021;-39
2023/02/04 10:38:18;;;;;;;4.85;1.98;;;;;;;;;;5029825;28;20041;-39
2023/02/04 10:40:45;;;;;;;12.45;2.35;;;;;;;;;;5029910;28;20041;-39
2023/02/04 10:43:20;;;;;;;5.93;2.08;;;;;;;;;;5031621;28;20049;-40
2023/02/04 10:45:48;;;;;;;4.72;1.85;;;;;;;;;;5030388;28;20026;-33
2023/02/04 10:48:17;;;;;;;6.78;2.30;;;;;;;;;;5031975;28;20056;-38
2023/02/04 10:50:45;;;;;;;5.35;2.15;;;;;;;;;;5033596;28;20021;-39
2023/02/04 10:55:56;;;;;;;4.38;1.33;;;;;;;;;;5029527;28;20553;-39
2023/02/04 10:58:29;;;;;;;5.25;1.80;;;;;;;;;;5029287;28;20330;-39
2023/02/04 11:00:55;;;;;;;2.75;1.25;;;;;;;;;;5026076;28;20417;-38
2023/02/04 11:03:21;;;;;;;2.33;1.58;;;;;;;;;;5029069;28;20041;-40
2023/02/04 11:05:47;;;;;;;1.98;1.40;;;;;;;;;;5031193;28;20117;-40
2023/02/04 11:08:21;;;;;;;4.95;1.92;;;;;;;;;;5022882;28;20125;-40
2023/02/04 11:10:49;;;;;;;5.75;1.45;;;;;;;;;;5029759;28;20035;-39
2023/02/04 11:13:26;;;;;;;5.28;1.23;;;;;;;;;;5027898;28;20386;-39
2023/02/04 11:16:07;;;;;;;5.13;1.63;;;;;;;;;;5028874;28;20556;-39
2023/02/04 11:18:43;;;;;;;8.32;1.50;;;;;;;;;;5031313;28;20029;-37
2023/02/04 11:21:13;;;;;;;8.18;1.70;;;;;;;;;;5027708;28;20043;-39
2023/02/04 11:23:39;;;;;;;3.63;1.48;;;;;;;;;;5028306;28;20025;-39
2023/02/04 11:26:13;;;;;;;2.38;1.55;;;;;;;;;;5028859;28;21085;-39
2023/02/04 11:28:48;;;;;;;3.97;1.50;;;;;;;;;;5027970;28;20025;-39
2023/02/04 11:31:26;;;;;;;1.52;1.30;;;;;;;;;;5028071;28;20025;-39
2023/02/04 11:34:12;;;;;;;2.28;1.10;;;;;;;;;;5030418;28;20125;-40
2023/02/04 11:36:58;;;;;;;2.13;1.23;;;;;;;;;;5022365;28;20026;-39
2023/02/04 11:39:43;;;;;;;3.80;1.48;;;;;;;;;;5030684;28;20486;-39
2023/02/04 11:42:14;;;;;;;2.28;1.48;;;;;;;;;;5027392;28;20078;-39
2023/02/04 11:44:40;;;;;;;4.88;1.35;;;;;;;;;;5030686;28;20458;-38
2023/02/04 11:47:08;;;;;;;6.97;1.60;;;;;;;;;;5023651;28;20116;-34
2023/02/04 11:49:35;;;;;;;3.60;1.50;;;;;;;;;;5045470;28;20038;-39
2023/02/04 11:52:12;;;;;;;4.45;1.40;;;;;;;;;;5023222;28;20029;-38
2023/02/04 11:54:38;;;;;;;5.90;1.90;;;;;;;;;;5027563;28;20033;-39
2023/02/04 11:57:04;;;;;;;3.15;1.45;;;;;;;;;;5029888;28;20071;-38
2023/02/04 11:59:30;;;;;;;4.90;1.50;;;;;;;;;;5027887;28;20025;-36
2023/02/04 12:02:06;;;;;;;5.75;1.83;;;;;;;;;;5026412;28;20546;-38
2023/02/04 12:04:32;;;;;;;3.22;1.90;;;;;;;;;;5029246;28;20030;-38
2023/02/04 12:06:59;;;;;;;6.72;1.67;;;;;;;;;;5027656;28;20422;-39
2023/02/04 12:09:28;;;;;;;4.40;1.50;;;;;;;;;;5029076;28;20037;-38
2023/02/04 12:11:55;;;;;;;4.53;1.60;;;;;;;;;;5030494;28;20084;-39
2023/02/04 12:14:27;;;;;;;4.90;1.63;;;;;;;;;;5024763;28;20037;-39
2023/02/04 12:16:55;;;;;;;6.18;1.60;;;;;;;;;;5030294;28;20120;-39
2023/02/04 12:19:21;;;;;;;3.88;1.63;;;;;;;;;;5028020;28;20485;-39
2023/02/04 12:21:47;;;;;;;2.47;1.48;;;;;;;;;;5025119;28;20036;-37
2023/02/04 12:24:13;;;;;;;2.13;1.35;;;;;;;;;;5030018;28;20025;-36
2023/02/04 12:26:39;;;;;;;2.70;1.10;;;;;;;;;;5030251;28;20045;-40
2023/02/04 12:29:05;;;;;;;4.90;1.50;;;;;;;;;;5028663;28;20498;-36
2023/02/04 12:31:31;;;;;;;2.40;1.25;;;;;;;;;;5029698;28;20034;-39
2023/02/04 12:33:58;;;;;;;1.83;1.30;;;;;;;;;;5028733;28;20658;-38
2023/02/04 12:36:26;;;;;;;2.05;1.10;;;;;;;;;;5029442;28;20034;-39
2023/02/04 12:38:52;;;;;;;2.35;1.13;;;;;;;;;;5028710;28;20021;-39
2023/02/04 12:41:18;;;;;;;2.13;1.10;;;;;;;;;;5028318;28;20389;-39
2023/02/04 12:43:44;;;;;;;3.42;1.88;;;;;;;;;;5029442;28;20057;-37
2023/02/04 12:46:10;;;;;;;1.92;1.30;;;;;;;;;;5029523;28;20486;-38
2023/02/04 12:48:39;;;;;;;2.13;1.40;;;;;;;;;;5026067;28;20025;-37
2023/02/04 12:51:06;;;;;;;1.98;1.17;;;;;;;;;;5027024;28;20427;-39
2023/02/04 12:53:32;;;;;;;1.08;1.08;;;;;;;;;;5027673;28;20025;-39
2023/02/04 12:55:58;;;;;;;2.90;1.30;;;;;;;;;;5025944;28;20079;-39
2023/02/04 12:58:24;;;;;;;2.50;1.30;;;;;;;;;;5027820;28;20040;-39
2023/02/04 13:00:49;;;;;;;1.92;1.30;;;;;;;;;;5025511;28;20510;-39
2023/02/04 13:03:16;;;;;;;1.38;1.20;;;;;;;;;;5022008;28;20075;-38
2023/02/04 13:05:42;;;;;;;1.48;1.35;;;;;;;;;;5028390;28;20034;-39
2023/02/04 13:08:08;;;;;;;2.88;1.40;;;;;;;;;;5026097;28;20044;-39
2023/02/04 13:10:34;;;;;;;3.22;1.48;;;;;;;;;;5028612;28;20108;-40
2023/02/04 13:13:00;;;;;;;2.80;1.63;;;;;;;;;;5026548;28;20037;-40
2023/02/04 13:15:26;;;;;;;2.17;1.20;;;;;;;;;;5029596;28;20025;-39
2023/02/04 13:17:52;;;;;;;2.17;1.40;;;;;;;;;;5030489;28;20381;-39
2023/02/04 13:20:18;;;;;;;1.92;1.42;;;;;;;;;;5027987;28;20513;-39
2023/02/04 13:22:44;;;;;;;2.08;1.40;;;;;;;;;;5032466;28;20061;-38
2023/02/04 13:25:10;;;;;;;1.67;1.27;;;;;;;;;;5023842;28;20057;-39
2023/02/04 13:27:37;;;;;;;1.08;1.00;;;;;;;;;;5030856;28;20494;-40
2023/02/04 13:30:04;;;;;;;2.17;1.48;;;;;;;;;;5030449;28;20029;-39
2023/02/04 13:32:30;;;;;;;1.30;1.15;;;;;;;;;;5031165;28;20397;-39
2023/02/04 13:34:56;;;;;;;1.10;1.10;;;;;;;;;;5036319;28;20100;-39
2023/02/04 13:37:22;;;;;;;1.63;1.52;;;;;;;;;;5033046;28;20037;-37
2023/02/04 13:39:48;;;;;;;1.60;1.17;;;;;;;;;;5031348;28;20053;-40
2023/02/04 13:42:14;;;;;;;4.18;1.70;;;;;;;;;;5030332;28;20037;-38
2023/02/04 13:44:40;;;;;;;1.73;1.10;;;;;;;;;;5030984;28;20029;-39
2023/02/04 13:47:06;;;;;;;1.65;1.35;;;;;;;;;;5032643;28;20052;-39
2023/02/04 13:49:32;;;;;;;1.17;1.13;;;;;;;;;;5032860;28;20033;-40
2023/02/04 13:51:58;;;;;;;1.63;1.40;;;;;;;;;;5029467;28;20075;-39
2023/02/04 13:54:24;;;;;;;1.70;1.45;;;;;;;;;;5027271;28;20030;-39
2023/02/04 13:56:50;;;;;;;1.42;1.23;;;;;;;;;;5032456;28;20036;-37
2023/02/04 13:59:16;;;;;;;1.83;1.00;;;;;;;;;;5029170;28;20025;-37
2023/02/04 14:01:42;;;;;;;0.93;0.93;;;;;;;;;;5032285;28;20380;-38
2023/02/04 14:04:08;;;;;;;1.80;1.00;;;;;;;;;;5030775;28;20024;-39
2023/02/04 14:06:37;;;;;;;2.88;1.25;;;;;;;;;;5030142;28;20053;-39
2023/02/04 14:09:03;;;;;;;2.17;1.15;;;;;;;;;;5036673;28;20055;-39
2023/02/04 14:11:29;;;;;;;2.70;1.10;;;;;;;;;;5032478;28;20389;-38
2023/02/04 14:13:55;;;;;;;2.45;1.40;;;;;;;;;;5031499;28;20021;-39
2023/02/04 14:16:21;;;;;;;0.90;0.85;;;;;;;;;;5032994;28;20030;-39
2023/02/04 14:18:48;;;;;;;1.27;1.17;;;;;;;;;;5032155;28;20026;-40
2023/02/04 14:21:13;;;;;;;1.38;1.13;;;;;;;;;;5031857;28;20044;-38
2023/02/04 14:23:41;;;;;;;1.58;1.15;;;;;;;;;;5032564;28;20026;-39
2023/02/04 14:26:06;;;;;;;2.97;1.30;;;;;;;;;;5029425;28;20108;-36
2023/02/04 14:28:32;;;;;;;2.97;1.20;;;;;;;;;;5032270;28;20677;-37
2023/02/04 14:30:58;;;;;;;1.13;1.10;;;;;;;;;;5031926;28;20036;-40
2023/02/04 14:33:24;;;;;;;1.05;1.05;;;;;;;;;;5042672;28;20018;-39
2023/02/04 14:35:50;;;;;;;1.63;1.00;;;;;;;;;;5032526;28;20024;-39
2023/02/04 14:38:17;;;;;;;1.63;1.15;;;;;;;;;;5030661;28;20039;-37
2023/02/04 14:40:43;;;;;;;2.50;1.10;;;;;;;;;;5031770;28;20398;-39
2023/02/04 14:43:12;;;;;;;1.30;1.20;;;;;;;;;;5031782;28;20124;-40